Time;durP1;ratioP1;P1;durP2;ratioP2;P2;SDS_P1;SDS_P2;PMS_P1;PMS_P2;Temp;Humidity;BMP_temperature;BMP_pressure;BME280_temperature;BME280_humidity;BME280_pressure;Samples;Min_cycle;Max_cycle;Signal;HPM_P1;HPM_P2
2022/03/06 00:00:24;;;;;;;17.60;4.90;;;;;;;18.93;45.79;100605.91;5050166;28;20171;-60
2022/03/06 00:02:50;;;;;;;15.53;6.03;;;;;;;18.98;45.57;100614.19;5050199;28;20288;-60
2022/03/06 00:05:15;;;;;;;11.70;4.70;;;;;;;18.92;45.87;100615.66;5050154;28;20180;-60
2022/03/06 00:07:41;;;;;;;13.03;5.00;;;;;;;18.93;46.02;100611.63;5049687;28;20231;-60
2022/03/06 00:10:06;;;;;;;14.00;5.43;;;;;;;18.92;45.87;100612.81;5028603;28;20267;-60
2022/03/06 00:12:32;;;;;;;12.83;5.00;;;;;;;18.97;45.69;100612.50;5029931;28;20172;-60
2022/03/06 00:14:57;;;;;;;13.73;5.70;;;;;;;18.94;45.90;100612.44;5030271;28;20538;-59
2022/03/06 00:17:23;;;;;;;11.27;4.50;;;;;;;18.93;45.98;100616.50;5033963;28;20184;-60
2022/03/06 00:19:48;;;;;;;15.23;5.30;;;;;;;18.93;46.09;100608.78;5049352;28;20176;-59
2022/03/06 00:22:13;;;;;;;14.17;5.53;;;;;;;18.93;46.12;100613.66;5049571;28;20208;-60
2022/03/06 00:24:39;;;;;;;13.00;4.90;;;;;;;18.95;45.99;100614.09;5049813;28;20198;-60
2022/03/06 00:27:05;;;;;;;10.87;4.87;;;;;;;18.93;46.08;100610.78;5049665;28;20619;-59
2022/03/06 00:29:30;;;;;;;12.27;5.60;;;;;;;18.91;46.12;100610.34;5048136;28;20176;-59
2022/03/06 00:31:55;;;;;;;13.73;5.97;;;;;;;18.91;46.04;100605.44;5049826;28;20172;-60
2022/03/06 00:34:21;;;;;;;13.53;5.53;;;;;;;18.90;46.42;100609.50;5049582;28;20182;-59
2022/03/06 00:36:46;;;;;;;15.27;5.03;;;;;;;18.91;45.98;100602.56;5049558;28;20198;-60
2022/03/06 00:39:12;;;;;;;13.20;5.27;;;;;;;18.93;46.06;100611.63;5031301;28;20176;-60
2022/03/06 00:41:37;;;;;;;12.90;5.40;;;;;;;18.95;46.05;100611.22;5049921;28;20183;-59
2022/03/06 00:44:03;;;;;;;16.10;5.33;;;;;;;18.91;46.17;100613.22;5049514;28;20214;-60
2022/03/06 00:46:28;;;;;;;11.07;4.63;;;;;;;18.91;46.49;100610.34;5049498;28;20176;-60
2022/03/06 00:48:54;;;;;;;15.00;5.30;;;;;;;18.93;46.08;100605.91;5047967;28;20686;-59
2022/03/06 00:51:19;;;;;;;10.90;4.33;;;;;;;18.90;46.26;100603.78;5049177;28;20588;-59
2022/03/06 00:53:45;;;;;;;9.93;4.23;;;;;;;18.90;46.39;100608.66;5048831;28;20179;-60
2022/03/06 00:56:10;;;;;;;10.40;5.57;;;;;;;18.94;46.23;100603.84;5049572;28;20607;-60
2022/03/06 00:58:37;;;;;;;13.60;5.00;;;;;;;18.95;46.19;100614.94;5044657;28;20206;-60
2022/03/06 01:01:03;;;;;;;12.80;4.70;;;;;;;18.91;46.34;100604.63;5048274;28;20219;-60
2022/03/06 01:03:29;;;;;;;12.43;5.00;;;;;;;18.88;46.57;100602.50;5047163;28;20879;-59
2022/03/06 01:05:54;;;;;;;7.80;4.77;;;;;;;18.93;46.39;100605.06;5049228;28;20549;-60
2022/03/06 01:08:20;;;;;;;15.50;4.73;;;;;;;18.91;46.30;100607.50;5041761;28;20235;-60
2022/03/06 01:10:46;;;;;;;11.73;5.30;;;;;;;18.91;46.66;100613.22;5027997;28;20185;-60
2022/03/06 01:13:11;;;;;;;14.60;5.60;;;;;;;18.89;46.70;100612.75;5029780;28;20180;-60
2022/03/06 01:15:37;;;;;;;9.47;4.20;;;;;;;18.90;46.47;100615.22;5011056;28;20921;-59
2022/03/06 01:18:05;;;;;;;10.03;4.53;;;;;;;18.92;46.35;100612.81;5032735;28;20177;-60
2022/03/06 01:20:31;;;;;;;16.90;5.00;;;;;;;18.92;46.61;100618.53;5028966;28;20183;-59
2022/03/06 01:22:56;;;;;;;11.37;3.70;;;;;;;18.93;46.63;100623.06;5029131;28;20470;-60
2022/03/06 01:25:22;;;;;;;11.50;5.30;;;;;;;18.92;46.47;100621.41;5036305;28;20191;-60
2022/03/06 01:27:47;;;;;;;9.80;4.60;;;;;;;18.93;46.29;100623.06;5048981;28;20195;-59
2022/03/06 01:30:15;;;;;;;8.70;4.10;;;;;;;18.92;46.34;100624.25;5042711;28;20185;-60
2022/03/06 01:32:40;;;;;;;17.50;5.40;;;;;;;18.91;46.34;100616.06;5029697;28;20181;-59
2022/03/06 01:35:06;;;;;;;11.17;5.00;;;;;;;18.91;46.58;100614.03;5028979;28;20771;-59
2022/03/06 01:37:31;;;;;;;11.70;4.60;;;;;;;18.91;46.54;100614.03;5028723;28;20184;-59
2022/03/06 01:39:57;;;;;;;10.07;4.97;;;;;;;18.88;46.43;100614.78;5027907;28;20172;-59
2022/03/06 01:42:22;;;;;;;12.30;4.53;;;;;;;18.89;46.80;100615.59;5029136;28;20378;-59
2022/03/06 01:44:52;;;;;;;10.93;4.70;;;;;;;18.91;46.39;100619.75;5033245;28;20760;-59
2022/03/06 01:47:36;;;;;;;9.67;4.00;;;;;;;18.91;46.68;100619.75;5049185;28;20242;-59
2022/03/06 01:50:05;;;;;;;19.00;4.80;;;;;;;18.88;46.78;100625.41;5052032;28;20509;-59
2022/03/06 01:52:31;;;;;;;9.97;3.97;;;;;;;18.90;46.47;100625.84;5052565;28;20436;-59
2022/03/06 01:54:56;;;;;;;11.33;4.30;;;;;;;18.90;46.61;100618.09;5052493;28;20418;-59
2022/03/06 01:57:22;;;;;;;8.60;4.00;;;;;;;18.90;46.72;100615.22;5034868;28;20262;-59
2022/03/06 01:59:47;;;;;;;11.13;4.43;;;;;;;18.85;46.66;100615.53;5052189;28;20521;-60
2022/03/06 02:02:13;;;;;;;13.80;5.30;;;;;;;18.86;46.61;100616.38;5052311;28;20203;-59
2022/03/06 02:04:38;;;;;;;9.70;4.30;;;;;;;18.86;46.64;100611.47;5051329;28;20219;-59
2022/03/06 02:07:04;;;;;;;7.93;3.80;;;;;;;18.89;46.64;100621.31;5052099;28;20176;-59
2022/03/06 02:09:29;;;;;;;8.07;4.53;;;;;;;18.86;46.54;100617.19;5036427;28;20248;-59
2022/03/06 02:14:39;;;;;;;12.93;3.90;;;;;;;18.86;46.63;100616.38;5032337;28;20630;-59
2022/03/06 02:17:04;;;;;;;10.33;4.57;;;;;;;18.86;46.74;100620.03;5033944;28;20450;-59
2022/03/06 02:19:30;;;;;;;10.57;3.83;;;;;;;18.82;46.78;100613.41;5051397;28;20168;-59
2022/03/06 02:21:55;;;;;;;11.50;4.70;;;;;;;18.84;46.77;100615.91;5052017;28;20234;-59
2022/03/06 02:24:21;;;;;;;9.90;4.20;;;;;;;18.84;46.95;100613.88;5052144;28;20168;-60
2022/03/06 02:26:46;;;;;;;8.00;4.07;;;;;;;18.85;46.83;100621.25;5051990;28;20224;-60
2022/03/06 02:29:12;;;;;;;10.27;4.90;;;;;;;18.81;46.74;100614.63;5051123;28;20262;-60
2022/03/06 02:31:37;;;;;;;8.67;3.70;;;;;;;18.84;46.77;100628.19;5052151;28;20191;-60
2022/03/06 02:34:04;;;;;;;9.90;4.37;;;;;;;18.84;46.94;100619.59;5051672;28;20176;-60
2022/03/06 02:36:33;;;;;;;8.90;4.20;;;;;;;18.85;46.59;100606.94;5051123;28;20255;-59
2022/03/06 02:38:59;;;;;;;12.40;4.43;;;;;;;18.87;46.73;100618.81;5050103;28;20413;-60
2022/03/06 02:41:24;;;;;;;7.60;3.73;;;;;;;18.85;47.01;100609.81;5051398;28;20422;-60
2022/03/06 02:43:49;;;;;;;7.10;3.70;;;;;;;18.85;46.66;100612.66;5051778;28;20203;-60
2022/03/06 02:46:15;;;;;;;9.50;4.30;;;;;;;18.84;46.96;100611.00;5051730;28;20176;-59
2022/03/06 02:48:40;;;;;;;8.80;4.33;;;;;;;18.82;47.02;100612.59;5038360;28;20213;-59
2022/03/06 02:51:06;;;;;;;9.00;3.70;;;;;;;18.83;46.74;100605.66;5031411;28;20181;-59
2022/03/06 02:53:31;;;;;;;8.97;4.00;;;;;;;18.84;46.89;100613.88;5031583;28;20235;-59
2022/03/06 02:55:58;;;;;;;9.53;3.50;;;;;;;18.83;46.89;100603.66;5036077;28;20172;-60
2022/03/06 02:58:24;;;;;;;9.27;3.53;;;;;;;18.83;46.87;100614.25;5050675;28;20218;-59
2022/03/06 03:00:49;;;;;;;9.90;4.33;;;;;;;18.83;46.85;100612.22;5050073;28;20426;-59
2022/03/06 03:03:15;;;;;;;11.50;4.80;;;;;;;18.84;46.96;100613.88;5051253;28;20697;-59
2022/03/06 03:05:40;;;;;;;7.27;3.33;;;;;;;18.83;47.03;100611.38;5051432;28;20592;-60
2022/03/06 03:08:06;;;;;;;8.93;4.07;;;;;;;18.82;47.00;100615.47;5049250;28;20232;-60
2022/03/06 03:10:31;;;;;;;6.20;3.60;;;;;;;18.82;47.08;100619.13;5050541;28;21095;-59
2022/03/06 03:12:57;;;;;;;12.60;4.00;;;;;;;18.81;47.04;100610.94;5051264;28;20167;-59
2022/03/06 03:15:22;;;;;;;9.07;4.00;;;;;;;18.82;46.91;100616.25;5036700;28;20317;-60
2022/03/06 03:17:48;;;;;;;7.03;3.33;;;;;;;18.79;47.20;100617.03;5037819;28;20187;-59
2022/03/06 03:20:13;;;;;;;7.07;3.17;;;;;;;18.83;47.01;100612.22;5050641;28;20219;-60
2022/03/06 03:22:39;;;;;;;6.83;3.27;;;;;;;18.84;46.77;100613.88;5051348;28;20582;-60
2022/03/06 03:25:05;;;;;;;7.40;3.53;;;;;;;18.82;46.96;100606.88;5051201;28;20424;-60
2022/03/06 03:27:30;;;;;;;9.40;3.50;;;;;;;18.78;47.18;100612.53;5047133;28;20226;-59
2022/03/06 03:29:56;;;;;;;8.57;3.20;;;;;;;18.80;47.03;100615.81;5050391;28;20179;-59
2022/03/06 03:32:21;;;;;;;10.37;3.67;;;;;;;18.80;47.10;100618.69;5050731;28;20179;-60
2022/03/06 03:34:47;;;;;;;6.73;3.87;;;;;;;18.78;47.40;100620.25;5047647;28;20566;-59
2022/03/06 03:37:12;;;;;;;5.40;3.40;;;;;;;18.76;47.08;100626.34;5050697;28;20714;-59
2022/03/06 03:39:37;;;;;;;6.57;3.70;;;;;;;18.79;47.02;100627.63;5050630;28;20175;-60
2022/03/06 03:42:03;;;;;;;6.80;4.00;;;;;;;18.78;46.97;100626.81;5049169;28;20230;-60
2022/03/06 03:44:28;;;;;;;7.13;3.80;;;;;;;18.79;47.07;100628.47;5048450;28;20261;-60
2022/03/06 03:46:54;;;;;;;8.03;3.67;;;;;;;18.78;46.98;100629.69;5050186;28;20183;-58
2022/03/06 03:49:19;;;;;;;7.47;3.90;;;;;;;18.78;47.08;100628.84;5030141;28;20176;-59
2022/03/06 03:51:45;;;;;;;6.30;3.57;;;;;;;18.78;47.16;100632.53;5030794;28;20650;-59
2022/03/06 03:54:10;;;;;;;8.07;3.13;;;;;;;18.78;47.16;100632.53;5031026;28;20176;-59
2022/03/06 03:56:36;;;;;;;6.20;3.70;;;;;;;18.76;47.33;100640.66;5030236;28;20603;-59
2022/03/06 03:59:01;;;;;;;8.90;3.90;;;;;;;18.77;47.27;100644.34;5029838;28;20191;-60
2022/03/06 04:01:27;;;;;;;6.50;3.80;;;;;;;18.76;47.36;100632.06;5030448;28;20198;-59
2022/03/06 04:03:52;;;;;;;6.10;3.53;;;;;;;18.78;46.96;100635.41;5030179;28;20635;-58
2022/03/06 04:06:18;;;;;;;6.83;3.07;;;;;;;18.78;47.10;100638.28;5035649;28;20653;-59
2022/03/06 04:08:43;;;;;;;6.83;3.83;;;;;;;18.76;46.96;100640.66;5040610;28;20274;-59
2022/03/06 04:11:09;;;;;;;8.03;3.60;;;;;;;18.74;47.44;100647.94;5029957;28;20176;-60
2022/03/06 04:13:34;;;;;;;9.40;4.47;;;;;;;18.77;47.12;100648.03;5030439;28;20258;-60
2022/03/06 04:15:59;;;;;;;6.40;3.50;;;;;;;18.75;47.22;100647.59;5030049;28;20176;-61
2022/03/06 04:18:25;;;;;;;7.20;3.43;;;;;;;18.76;47.29;100652.09;5042281;28;20180;-59
2022/03/06 04:20:50;;;;;;;5.50;3.23;;;;;;;18.74;47.12;100657.38;5031663;28;20179;-60
2022/03/06 04:23:16;;;;;;;7.60;3.40;;;;;;;18.76;47.37;100662.72;5049644;28;20191;-59
2022/03/06 04:25:41;;;;;;;4.73;2.80;;;;;;;18.75;47.42;100664.75;5050252;28;20237;-59
2022/03/06 04:28:07;;;;;;;5.43;3.67;;;;;;;18.77;47.62;100665.19;5048898;28;20179;-59
2022/03/06 04:30:33;;;;;;;6.10;3.17;;;;;;;18.77;47.31;100670.91;5049340;28;20655;-60
2022/03/06 04:32:58;;;;;;;7.87;3.60;;;;;;;18.76;47.21;100666.41;5049707;28;20480;-60
2022/03/06 04:35:23;;;;;;;6.00;3.40;;;;;;;18.76;47.11;100677.03;5049391;28;20180;-61
2022/03/06 04:37:49;;;;;;;8.13;3.97;;;;;;;18.75;47.37;100679.03;5049109;28;20183;-59
2022/03/06 04:40:15;;;;;;;5.77;3.33;;;;;;;18.81;47.00;100677.53;5049643;28;20186;-59
2022/03/06 04:42:40;;;;;;;6.67;3.23;;;;;;;18.76;47.26;100669.25;5049727;28;20204;-60
2022/03/06 04:45:06;;;;;;;4.97;3.20;;;;;;;18.77;47.61;100673.78;5049509;28;20429;-60
2022/03/06 04:47:32;;;;;;;5.37;3.00;;;;;;;18.79;47.35;100674.25;5049371;28;20207;-59
2022/03/06 04:49:57;;;;;;;4.77;2.80;;;;;;;18.78;47.09;100678.31;5049071;28;20788;-59
2022/03/06 04:52:23;;;;;;;4.80;3.17;;;;;;;18.74;47.48;100688.00;5049552;28;20168;-59
2022/03/06 04:54:48;;;;;;;7.53;3.57;;;;;;;18.74;47.32;100682.28;5046263;28;20255;-59
2022/03/06 04:57:14;;;;;;;5.33;3.23;;;;;;;18.73;47.16;100684.31;5029441;28;20662;-59
2022/03/06 04:59:39;;;;;;;6.73;3.07;;;;;;;18.74;47.40;100683.13;5029221;28;20173;-60
2022/03/06 05:02:05;;;;;;;5.77;3.47;;;;;;;18.74;47.32;100682.28;5028028;28;20230;-59
2022/03/06 05:04:30;;;;;;;8.30;4.10;;;;;;;18.74;47.35;100682.28;5038820;28;20200;-59
2022/03/06 05:06:56;;;;;;;7.93;3.70;;;;;;;18.77;47.07;100681.53;5049382;28;20642;-59
2022/03/06 05:09:21;;;;;;;8.43;3.50;;;;;;;18.75;47.44;100687.63;5034233;28;20227;-59
2022/03/06 05:11:46;;;;;;;6.50;3.30;;;;;;;18.76;47.46;100680.69;5031109;28;20537;-59
2022/03/06 05:14:12;;;;;;;6.20;3.23;;;;;;;18.75;47.21;100679.03;5028158;28;20169;-59
2022/03/06 05:16:37;;;;;;;5.57;3.43;;;;;;;18.76;47.23;100685.63;5029704;28;20223;-60
2022/03/06 05:19:03;;;;;;;7.17;3.73;;;;;;;18.75;47.34;100689.66;5047355;28;20189;-59
2022/03/06 05:21:28;;;;;;;5.57;3.27;;;;;;;18.77;47.31;100688.06;5047966;28;20198;-59
2022/03/06 05:23:53;;;;;;;4.77;3.00;;;;;;;18.75;47.10;100693.34;5048702;28;20579;-60
2022/03/06 05:26:19;;;;;;;4.17;2.67;;;;;;;18.74;47.41;100694.56;5053945;28;20638;-60
2022/03/06 05:28:45;;;;;;;7.17;3.30;;;;;;;18.76;47.42;100697.06;5052949;28;20267;-60
2022/03/06 05:31:10;;;;;;;6.10;3.30;;;;;;;18.76;47.16;100695.00;5053253;28;20526;-59
2022/03/06 05:33:35;;;;;;;6.60;2.93;;;;;;;18.77;47.36;100696.66;5052961;28;20326;-59
2022/03/06 05:36:01;;;;;;;6.50;3.00;;;;;;;18.75;47.19;100690.50;5042484;28;20218;-60
2022/03/06 05:38:26;;;;;;;4.63;3.30;;;;;;;18.73;47.21;100690.03;5033047;28;20172;-59
2022/03/06 05:40:52;;;;;;;5.60;3.00;;;;;;;18.72;47.41;100694.09;5031660;28;20180;-59
2022/03/06 05:43:17;;;;;;;6.70;3.10;;;;;;;18.72;47.22;100691.22;5032958;28;20208;-59
2022/03/06 05:45:44;;;;;;;5.40;3.10;;;;;;;18.75;47.34;100698.22;5043644;28;20179;-60
2022/03/06 05:48:10;;;;;;;5.30;3.13;;;;;;;18.74;47.53;100699.44;5053105;28;20194;-59
2022/03/06 05:50:36;;;;;;;5.73;3.37;;;;;;;18.79;47.33;100700.00;5052360;28;20422;-59
2022/03/06 05:53:01;;;;;;;5.70;3.37;;;;;;;18.74;47.32;100706.00;5052463;28;20175;-60
2022/03/06 05:55:28;;;;;;;8.00;3.43;;;;;;;18.76;47.22;100706.44;5052898;28;20176;-59
2022/03/06 05:57:54;;;;;;;5.37;3.23;;;;;;;18.79;47.31;100713.44;5052339;28;20191;-59
2022/03/06 06:00:23;;;;;;;6.83;3.20;;;;;;;18.74;47.52;100708.00;5052128;28;20430;-59
2022/03/06 06:02:49;;;;;;;5.53;3.27;;;;;;;18.74;47.26;100710.88;5052436;28;20678;-59
2022/03/06 06:05:17;;;;;;;4.90;3.00;;;;;;;18.73;47.58;100714.94;5052303;28;20433;-59
2022/03/06 06:07:43;;;;;;;8.17;2.90;;;;;;;18.76;47.30;100714.22;5051136;28;20498;-61
2022/03/06 06:10:09;;;;;;;6.03;3.30;;;;;;;18.77;47.11;100715.88;5030452;28;20419;-59
2022/03/06 06:12:34;;;;;;;5.40;2.70;;;;;;;18.73;47.87;100718.66;5032294;28;20187;-59
2022/03/06 06:15:00;;;;;;;4.17;2.90;;;;;;;18.75;47.39;100724.81;5032487;28;20871;-60
2022/03/06 06:17:25;;;;;;;4.17;2.83;;;;;;;18.78;47.37;100723.25;5036583;28;20199;-59
2022/03/06 06:19:51;;;;;;;6.70;2.80;;;;;;;18.78;47.46;100711.78;5051585;28;20224;-59
2022/03/06 06:22:16;;;;;;;4.57;2.40;;;;;;;18.74;47.48;100720.31;5052138;28;20194;-59
2022/03/06 06:24:42;;;;;;;5.80;3.20;;;;;;;18.72;47.52;100725.53;5052566;28;20172;-59
2022/03/06 06:27:07;;;;;;;5.93;3.07;;;;;;;18.79;47.12;100730.63;5052617;28;20178;-59
2022/03/06 06:29:33;;;;;;;5.10;2.83;;;;;;;18.73;47.19;100730.09;5051157;28;20172;-60
2022/03/06 06:31:59;;;;;;;6.20;3.00;;;;;;;18.75;47.73;100729.69;5051918;28;20254;-59
2022/03/06 06:34:24;;;;;;;4.97;2.90;;;;;;;18.75;47.37;100730.53;5051332;28;20167;-59
2022/03/06 06:36:50;;;;;;;6.50;3.50;;;;;;;18.75;47.35;100729.69;5052134;28;20475;-60
2022/03/06 06:39:16;;;;;;;5.17;3.27;;;;;;;18.75;47.31;100733.41;5051340;28;20183;-59
2022/03/06 06:41:42;;;;;;;6.13;2.70;;;;;;;18.74;47.30;100728.03;5052292;28;20176;-59
2022/03/06 06:44:07;;;;;;;5.83;2.97;;;;;;;18.74;47.51;100731.75;5051646;28;20507;-59
2022/03/06 06:46:33;;;;;;;4.57;2.63;;;;;;;18.75;47.29;100726.81;5051371;28;20925;-59
2022/03/06 06:48:58;;;;;;;7.67;3.97;;;;;;;18.75;47.41;100736.25;5050720;28;20189;-58
2022/03/06 06:51:24;;;;;;;4.53;3.00;;;;;;;18.78;47.25;100735.53;5051911;28;20194;-59
2022/03/06 06:53:49;;;;;;;6.47;2.80;;;;;;;18.76;47.56;100735.03;5051404;28;20172;-59
2022/03/06 06:56:15;;;;;;;5.40;2.60;;;;;;;18.79;47.07;100740.03;5046053;28;20186;-59
2022/03/06 06:58:40;;;;;;;5.43;3.17;;;;;;;18.79;47.40;100736.34;5031315;28;20215;-59
2022/03/06 07:01:06;;;;;;;4.60;2.70;;;;;;;18.76;47.52;100735.03;5031491;28;20533;-59
2022/03/06 07:03:31;;;;;;;5.80;3.13;;;;;;;18.78;47.10;100741.25;5031145;28;20211;-60
2022/03/06 07:05:58;;;;;;;6.00;3.27;;;;;;;18.82;47.21;100739.28;5032655;28;20256;-58
2022/03/06 07:08:23;;;;;;;5.83;3.10;;;;;;;18.78;47.30;100746.97;5043559;28;20894;-59
2022/03/06 07:10:49;;;;;;;4.80;2.90;;;;;;;18.79;47.15;100748.63;5048418;28;20544;-59
2022/03/06 07:13:14;;;;;;;5.20;3.30;;;;;;;18.82;47.54;100747.84;5051296;28;20184;-59
2022/03/06 07:15:40;;;;;;;5.30;3.07;;;;;;;18.84;47.37;100751.19;5013694;28;20184;-59
2022/03/06 07:18:06;;;;;;;5.03;3.00;;;;;;;18.81;47.37;100757.66;5040426;28;20550;-59
2022/03/06 07:20:31;;;;;;;4.57;3.03;;;;;;;18.77;47.33;100753.88;5049494;28;20168;-59
2022/03/06 07:22:57;;;;;;;3.97;2.80;;;;;;;18.78;47.34;100764.13;5032842;28;20210;-59
2022/03/06 07:25:22;;;;;;;4.33;2.47;;;;;;;18.79;47.20;100770.66;5014673;28;20172;-59
2022/03/06 07:27:48;;;;;;;6.10;3.20;;;;;;;18.83;47.14;100765.84;5050991;28;20187;-59
2022/03/06 07:30:13;;;;;;;4.90;2.80;;;;;;;18.80;47.65;100773.16;5050329;28;20163;-58
2022/03/06 07:32:45;;;;;;;4.87;2.93;;;;;;;18.79;47.54;100770.66;5051060;28;20238;-59
2022/03/06 07:35:11;;;;;;;3.90;2.70;;;;;;;18.81;47.22;100766.22;5050697;28;20176;-59
2022/03/06 07:37:37;;;;;;;6.00;2.90;;;;;;;18.80;47.23;100773.16;5046761;28;21027;-59
2022/03/06 07:40:02;;;;;;;5.40;3.17;;;;;;;18.80;47.30;100769.44;5050267;28;20258;-59
2022/03/06 07:42:28;;;;;;;5.87;3.00;;;;;;;18.78;47.58;100771.88;5050657;28;20211;-59
2022/03/06 07:44:53;;;;;;;4.40;2.70;;;;;;;18.79;47.30;100771.50;5050269;28;20218;-59
2022/03/06 07:47:18;;;;;;;6.00;2.70;;;;;;;18.80;47.28;100775.16;5049890;28;20182;-59
2022/03/06 07:49:44;;;;;;;5.30;2.97;;;;;;;18.80;47.42;100776.00;5049984;28;20171;-59
2022/03/06 07:52:09;;;;;;;4.70;2.80;;;;;;;18.78;47.42;100778.44;5050741;28;20174;-59
2022/03/06 07:54:35;;;;;;;5.77;2.67;;;;;;;18.80;47.51;100773.16;5049735;28;20179;-59
2022/03/06 07:57:00;;;;;;;5.37;3.53;;;;;;;18.82;47.11;100779.31;5049351;28;20869;-59
2022/03/06 07:59:26;;;;;;;4.93;3.03;;;;;;;18.80;47.21;100781.72;5031518;28;20180;-59
2022/03/06 08:01:52;;;;;;;5.23;2.53;;;;;;;18.79;47.39;100780.09;5050412;28;20213;-59
2022/03/06 08:04:18;;;;;;;6.10;2.97;;;;;;;18.82;47.09;100787.09;5049682;28;20214;-60
2022/03/06 08:06:44;;;;;;;4.80;2.93;;;;;;;18.80;47.36;100790.31;5050040;28;20859;-59
2022/03/06 08:09:09;;;;;;;5.10;3.17;;;;;;;18.82;47.29;100776.47;5019353;28;20679;-59
2022/03/06 08:11:34;;;;;;;5.37;2.67;;;;;;;18.80;47.24;100787.47;5030557;28;20199;-59
2022/03/06 08:14:00;;;;;;;4.40;3.00;;;;;;;18.78;47.50;100787.00;5030057;28;20164;-59
2022/03/06 08:16:25;;;;;;;5.33;2.63;;;;;;;18.81;47.58;100785.44;5030138;28;20168;-59
2022/03/06 08:18:51;;;;;;;7.70;2.80;;;;;;;18.79;47.60;100790.69;5045320;28;20180;-59
2022/03/06 08:21:16;;;;;;;5.73;3.20;;;;;;;18.85;47.41;100784.31;5049036;28;20198;-59
2022/03/06 08:23:41;;;;;;;4.57;2.60;;;;;;;18.82;47.37;100793.63;5048818;28;20677;-59
2022/03/06 08:26:07;;;;;;;4.50;2.67;;;;;;;18.80;47.56;100787.47;5050124;28;20164;-59
2022/03/06 08:28:32;;;;;;;4.57;2.70;;;;;;;18.84;47.11;100788.38;5048684;28;20242;-59
2022/03/06 08:30:58;;;;;;;4.23;2.80;;;;;;;18.84;47.44;100784.69;5048559;28;20164;-59
2022/03/06 08:33:23;;;;;;;7.07;3.20;;;;;;;18.87;47.27;100789.66;5049768;28;20171;-58
2022/03/06 08:35:49;;;;;;;4.77;2.73;;;;;;;18.87;47.23;100790.47;5049638;28;20253;-59
2022/03/06 08:38:14;;;;;;;4.50;2.90;;;;;;;18.88;47.10;100779.88;5049665;28;20183;-59
2022/03/06 08:40:40;;;;;;;4.63;2.50;;;;;;;18.83;47.32;100781.00;5049546;28;20654;-59
2022/03/06 08:43:05;;;;;;;5.43;3.17;;;;;;;18.85;47.24;100780.59;5045789;28;20191;-59
2022/03/06 08:45:31;;;;;;;7.47;2.70;;;;;;;18.86;47.13;100783.09;5012802;28;20179;-59
2022/03/06 08:47:56;;;;;;;4.30;2.70;;;;;;;18.83;47.34;100781.00;5038396;28;20240;-59
2022/03/06 08:50:22;;;;;;;5.93;2.80;;;;;;;18.85;47.37;100781.44;5048865;28;20654;-59
2022/03/06 08:52:47;;;;;;;4.47;2.60;;;;;;;18.82;47.36;100785.03;5048282;28;20578;-59
2022/03/06 08:55:13;;;;;;;5.30;3.00;;;;;;;18.82;47.43;100782.19;5045104;28;20270;-59
2022/03/06 08:57:38;;;;;;;5.83;2.77;;;;;;;18.84;47.19;100778.94;5049602;28;20176;-59
2022/03/06 09:00:05;;;;;;;4.13;2.67;;;;;;;18.86;47.30;100782.28;5048861;28;20627;-59
2022/03/06 09:02:30;;;;;;;4.33;2.90;;;;;;;18.86;47.29;100783.09;5031706;28;20177;-59
2022/03/06 09:04:55;;;;;;;3.90;2.50;;;;;;;18.90;47.14;100778.31;5029221;28;20438;-59
2022/03/06 09:07:22;;;;;;;3.27;2.47;;;;;;;18.90;47.04;100778.31;5029202;28;20259;-58
2022/03/06 09:09:47;;;;;;;4.77;3.00;;;;;;;18.86;47.23;100777.38;5033546;28;20251;-59
2022/03/06 09:12:13;;;;;;;4.93;2.70;;;;;;;18.85;47.06;100772.88;5029787;28;20450;-59
2022/03/06 09:14:38;;;;;;;5.07;2.67;;;;;;;18.82;47.31;100770.75;5046374;28;20188;-59
2022/03/06 09:17:04;;;;;;;4.93;3.10;;;;;;;18.85;47.15;100770.00;5049317;28;20737;-60
2022/03/06 09:19:29;;;;;;;4.93;2.93;;;;;;;18.85;47.10;100772.03;5048461;28;20661;-59
2022/03/06 09:21:55;;;;;;;4.23;2.27;;;;;;;18.90;47.03;100774.59;5049146;28;20168;-59
2022/03/06 09:24:20;;;;;;;5.37;2.90;;;;;;;18.90;47.06;100774.59;5048416;28;20206;-59
2022/03/06 09:26:47;;;;;;;5.30;3.20;;;;;;;18.88;47.31;100774.16;5048890;28;20539;-59
2022/03/06 09:29:12;;;;;;;6.03;2.83;;;;;;;18.88;47.45;100765.56;5032570;28;20758;-59
2022/03/06 09:31:39;;;;;;;4.47;2.77;;;;;;;18.86;47.25;100768.78;5031719;28;20505;-59
2022/03/06 09:34:05;;;;;;;4.80;2.60;;;;;;;18.91;46.97;100767.69;5029087;28;20601;-59
2022/03/06 09:36:31;;;;;;;5.53;2.80;;;;;;;18.88;47.13;100777.84;5036282;28;20973;-59
2022/03/06 09:38:56;;;;;;;4.70;2.57;;;;;;;18.88;47.06;100771.28;5047636;28;20655;-59
2022/03/06 09:41:26;;;;;;;5.30;3.20;;;;;;;18.91;46.97;100773.44;5049151;28;20255;-59
2022/03/06 09:43:53;;;;;;;4.60;2.83;;;;;;;18.91;47.29;100771.38;5048978;28;20227;-59
2022/03/06 09:46:19;;;;;;;4.87;2.93;;;;;;;18.91;47.33;100764.84;5047731;28;20422;-59
2022/03/06 09:48:44;;;;;;;3.87;2.43;;;;;;;18.88;47.23;100771.28;5047026;28;20500;-59
2022/03/06 09:51:09;;;;;;;4.17;2.70;;;;;;;18.92;47.17;100769.34;5047485;28;20167;-59
2022/03/06 09:53:35;;;;;;;3.97;2.87;;;;;;;18.93;46.84;100774.72;5047744;28;20176;-59
2022/03/06 09:56:00;;;;;;;4.47;2.93;;;;;;;18.95;47.20;100775.16;5049022;28;20180;-59
2022/03/06 09:58:26;;;;;;;4.30;2.90;;;;;;;18.91;47.04;100762.78;5048620;28;20180;-59
2022/03/06 10:00:52;;;;;;;7.37;2.97;;;;;;;18.92;47.07;100766.50;5048736;28;20188;-58
2022/03/06 10:03:18;;;;;;;4.07;2.40;;;;;;;18.88;47.40;100757.00;5048447;28;21041;-59
2022/03/06 10:05:44;;;;;;;5.03;2.80;;;;;;;18.94;47.02;100759.19;5048733;28;20175;-59
2022/03/06 10:08:24;;;;;;;4.20;2.73;;;;;;;18.94;47.31;100761.22;5048713;28;20798;-59
2022/03/06 10:10:51;;;;;;;4.13;2.60;;;;;;;18.93;47.09;100762.44;5051481;28;20206;-59
2022/03/06 10:13:23;;;;;;;4.60;2.70;;;;;;;18.90;47.37;100755.41;5052144;28;20929;-59
2022/03/06 10:16:11;;;;;;;4.03;2.67;;;;;;;18.93;47.30;100763.25;5052339;28;20505;-59
2022/03/06 10:18:46;;;;;;;3.80;2.37;;;;;;;18.94;47.04;100750.63;5051075;28;20789;-59
2022/03/06 10:21:20;;;;;;;4.60;2.87;;;;;;;18.90;47.46;100754.56;5051534;28;20475;-60
2022/03/06 10:24:06;;;;;;;5.40;2.93;;;;;;;18.88;47.69;100759.84;5052217;28;20972;-60
2022/03/06 10:26:34;;;;;;;4.20;2.63;;;;;;;18.90;47.26;100755.41;5051961;28;20406;-59
2022/03/06 10:29:02;;;;;;;4.43;2.73;;;;;;;18.92;47.07;100750.13;5034090;28;20755;-59
2022/03/06 10:31:29;;;;;;;4.13;2.80;;;;;;;18.90;47.42;100754.56;5052005;28;20418;-61
2022/03/06 10:33:55;;;;;;;3.80;2.53;;;;;;;18.89;47.31;100752.91;5052300;28;20475;-59
2022/03/06 10:36:31;;;;;;;5.93;2.70;;;;;;;18.90;47.43;100754.56;5052014;28;20418;-59
2022/03/06 10:38:56;;;;;;;5.90;2.80;;;;;;;18.90;47.14;100760.28;5051162;28;20909;-59
2022/03/06 10:41:22;;;;;;;4.70;2.70;;;;;;;18.88;47.64;100757.84;5050317;28;20429;-59
2022/03/06 10:43:51;;;;;;;4.87;2.57;;;;;;;18.91;47.43;100756.25;5051814;28;20204;-59
2022/03/06 10:46:18;;;;;;;3.70;2.53;;;;;;;18.92;47.26;100755.06;5051783;28;20172;-59
2022/03/06 10:48:53;;;;;;;5.90;2.73;;;;;;;18.90;47.63;100754.56;5050222;28;20432;-59
2022/03/06 10:51:19;;;;;;;4.90;2.80;;;;;;;18.92;47.28;100752.19;5051184;28;20418;-59
2022/03/06 10:53:51;;;;;;;4.40;3.07;;;;;;;18.91;47.43;100762.78;5033941;28;20767;-59
2022/03/06 10:56:17;;;;;;;5.90;2.50;;;;;;;18.92;47.35;100763.63;5033991;28;20417;-59
2022/03/06 10:58:46;;;;;;;4.40;2.67;;;;;;;18.92;47.32;100761.59;5051303;28;20414;-59
2022/03/06 11:01:14;;;;;;;4.93;3.13;;;;;;;18.90;47.59;100754.56;5034199;28;20180;-59
2022/03/06 11:03:40;;;;;;;4.83;2.63;;;;;;;18.92;47.42;100773.03;5013391;28;20474;-59
2022/03/06 11:06:07;;;;;;;4.73;2.40;;;;;;;18.91;47.39;100757.06;5031367;28;20411;-59
2022/03/06 11:08:34;;;;;;;4.90;2.57;;;;;;;18.93;47.44;100763.25;5033622;28;20634;-59
2022/03/06 11:10:59;;;;;;;5.73;2.77;;;;;;;18.91;47.57;100751.34;5031123;28;20411;-59
2022/03/06 11:13:27;;;;;;;3.80;2.30;;;;;;;18.95;47.11;100749.41;5036850;28;20498;-59
2022/03/06 11:15:52;;;;;;;7.23;2.23;;;;;;;18.93;47.43;100748.13;5033257;28;20282;-59
2022/03/06 11:18:18;;;;;;;4.33;2.33;;;;;;;18.94;47.17;100750.63;5050327;28;20421;-59
2022/03/06 11:20:44;;;;;;;4.00;2.90;;;;;;;18.93;47.58;100750.97;5049665;28;20174;-59